createdAt,value
2018-10-12T00:01:43.781Z,11.77
2018-10-12T00:04:11.984Z,11.60
2018-10-12T00:06:40.460Z,11.97
2018-10-12T00:09:09.909Z,12.97
2018-10-12T00:11:38.174Z,12.87
2018-10-12T00:14:06.324Z,11.77
2018-10-12T00:16:34.517Z,12.23
2018-10-12T00:19:02.655Z,12.17
2018-10-12T00:21:30.790Z,12.83
2018-10-12T00:23:58.980Z,13.03
2018-10-12T00:26:27.313Z,12.33
2018-10-12T00:28:55.465Z,13.20
2018-10-12T00:31:23.705Z,13.07
2018-10-12T00:33:51.851Z,12.43
2018-10-12T00:36:20.095Z,13.40
2018-10-12T00:38:48.398Z,13.20
2018-10-12T00:41:16.601Z,12.90
2018-10-12T00:43:44.775Z,14.27
2018-10-12T00:46:12.952Z,12.83
2018-10-12T00:48:41.121Z,13.93
2018-10-12T00:51:09.278Z,18.43
2018-10-12T00:53:37.462Z,14.23
2018-10-12T00:56:05.636Z,14.00
2018-10-12T00:58:33.812Z,14.07
2018-10-12T01:01:01.991Z,13.37
2018-10-12T01:03:30.299Z,14.07
2018-10-12T01:05:58.474Z,14.17
2018-10-12T01:08:26.738Z,13.97
2018-10-12T01:10:54.966Z,14.47
2018-10-12T01:13:23.178Z,14.27
2018-10-12T01:15:51.360Z,13.63
2018-10-12T01:18:19.647Z,15.40
2018-10-12T01:20:47.863Z,14.27
2018-10-12T01:23:16.056Z,13.50
2018-10-12T01:25:44.284Z,13.37
2018-10-12T01:28:12.448Z,14.90
2018-10-12T01:30:40.622Z,14.37
2018-10-12T01:33:08.768Z,16.37
2018-10-12T01:35:37.016Z,15.10
2018-10-12T01:38:05.241Z,14.93
2018-10-12T01:40:33.680Z,15.47
2018-10-12T01:43:02.208Z,14.63
2018-10-12T01:45:30.424Z,14.60
2018-10-12T01:47:58.597Z,14.50
2018-10-12T01:50:26.826Z,15.80
2018-10-12T01:52:54.961Z,14.57
2018-10-12T01:55:23.110Z,14.47
2018-10-12T01:57:51.283Z,15.67
2018-10-12T02:00:19.592Z,16.40
2018-10-12T02:02:47.806Z,14.80
2018-10-12T02:05:15.948Z,14.13
2018-10-12T02:07:44.150Z,15.80
2018-10-12T02:10:12.287Z,15.30
2018-10-12T02:12:40.491Z,15.10
2018-10-12T02:15:08.655Z,14.80
2018-10-12T02:17:36.879Z,16.13
2018-10-12T02:20:05.188Z,15.43
2018-10-12T02:22:33.330Z,14.77
2018-10-12T02:25:01.572Z,14.97
2018-10-12T02:27:29.721Z,16.63
2018-10-12T02:29:57.951Z,16.23
2018-10-12T02:32:26.225Z,17.37
2018-10-12T02:34:54.388Z,16.13
2018-10-12T02:37:22.565Z,16.40
2018-10-12T02:39:50.765Z,16.13
2018-10-12T02:42:18.980Z,16.47
2018-10-12T02:44:47.118Z,15.67
2018-10-12T02:47:15.291Z,16.60
2018-10-12T02:49:43.438Z,16.20
2018-10-12T02:52:11.598Z,16.00
2018-10-12T02:54:39.918Z,15.73
2018-10-12T02:57:08.209Z,16.13
2018-10-12T02:59:36.384Z,17.17
2018-10-12T03:02:04.526Z,16.77
2018-10-12T03:04:32.705Z,18.13
2018-10-12T03:07:00.922Z,16.77
2018-10-12T03:09:29.056Z,17.23
2018-10-12T03:11:57.234Z,17.50
2018-10-12T03:14:25.380Z,17.77
2018-10-12T03:16:53.552Z,17.17
2018-10-12T03:19:21.831Z,17.67
2018-10-12T03:21:50.109Z,17.27
2018-10-12T03:24:18.653Z,17.47
2018-10-12T03:26:46.931Z,18.13
2018-10-12T03:29:15.188Z,18.07
2018-10-12T03:31:43.417Z,17.63
2018-10-12T03:34:11.652Z,18.17
2018-10-12T03:36:40.023Z,17.90
2018-10-12T03:39:08.505Z,17.23
2018-10-12T03:41:36.783Z,17.23
2018-10-12T03:44:04.928Z,17.00
2018-10-12T03:46:33.093Z,19.40
2018-10-12T03:49:02.223Z,19.90
2018-10-12T03:51:31.497Z,18.20
2018-10-12T03:53:59.982Z,19.63
2018-10-12T03:56:28.149Z,20.10
2018-10-12T03:58:56.418Z,18.50
2018-10-12T04:01:24.571Z,19.80
2018-10-12T04:03:52.750Z,20.00
2018-10-12T04:06:20.912Z,21.47
2018-10-12T04:08:49.112Z,21.53
2018-10-12T04:11:17.300Z,21.50
2018-10-12T04:13:45.472Z,22.03
2018-10-12T04:16:13.672Z,21.03
2018-10-12T04:18:42.161Z,23.73
2018-10-12T04:21:10.328Z,23.83
2018-10-12T04:23:38.686Z,23.50
2018-10-12T04:26:07.004Z,23.67
2018-10-12T04:28:35.159Z,23.67
2018-10-12T04:31:03.337Z,23.27
2018-10-12T04:33:31.558Z,22.17
2018-10-12T04:35:59.851Z,21.10
2018-10-12T04:38:36.711Z,21.67
2018-10-12T04:41:07.649Z,21.03
2018-10-12T04:43:35.834Z,21.07
2018-10-12T04:46:06.544Z,22.53
2018-10-12T04:48:35.726Z,22.37
2018-10-12T04:51:05.472Z,20.23
2018-10-12T04:53:33.710Z,21.63
2018-10-12T04:56:01.921Z,22.70
2018-10-12T04:58:30.145Z,21.40
2018-10-12T05:00:58.335Z,23.17
2018-10-12T05:03:26.471Z,21.17
2018-10-12T05:05:54.640Z,24.60
2018-10-12T05:08:22.850Z,22.23
2018-10-12T05:10:51.092Z,21.23
2018-10-12T05:13:19.281Z,20.30
2018-10-12T05:15:47.445Z,20.20
2018-10-12T05:18:15.714Z,22.07
2018-10-12T05:20:43.990Z,19.73
2018-10-12T05:23:12.287Z,22.67
2018-10-12T05:25:40.536Z,20.37
2018-10-12T05:28:08.779Z,19.73
2018-10-12T05:30:36.961Z,21.37
2018-10-12T05:33:05.195Z,23.53
2018-10-12T05:35:33.640Z,20.50
2018-10-12T05:38:01.890Z,20.13
2018-10-12T05:40:30.271Z,20.57
2018-10-12T05:42:58.547Z,19.87
2018-10-12T05:45:26.781Z,20.70
2018-10-12T05:48:05.249Z,20.70
2018-10-12T05:50:33.584Z,21.13
2018-10-12T05:53:01.824Z,21.30
2018-10-12T05:55:29.998Z,22.23
2018-10-12T05:57:58.165Z,22.00
2018-10-12T06:00:31.176Z,24.97
2018-10-12T06:02:59.341Z,21.53
2018-10-12T06:05:27.504Z,22.67
2018-10-12T06:07:55.674Z,22.60
2018-10-12T06:10:23.900Z,20.27
2018-10-12T06:12:52.119Z,22.00
2018-10-12T06:15:20.390Z,22.87
2018-10-12T06:17:48.545Z,22.43
2018-10-12T06:20:16.780Z,22.53
2018-10-12T06:22:45.053Z,22.97
2018-10-12T06:25:13.217Z,22.80
2018-10-12T06:27:41.382Z,20.93
2018-10-12T06:30:09.784Z,22.30
2018-10-12T06:32:38.029Z,21.10
2018-10-12T06:35:06.922Z,20.67
2018-10-12T06:37:35.448Z,21.10
2018-10-12T06:40:04.400Z,20.60
2018-10-12T06:42:32.637Z,22.47
2018-10-12T06:45:01.492Z,19.73
2018-10-12T06:47:29.864Z,19.90
2018-10-12T06:49:58.055Z,20.70
2018-10-12T06:52:26.199Z,20.23
2018-10-12T06:54:54.545Z,21.30
2018-10-12T06:57:22.767Z,19.63
2018-10-12T06:59:51.007Z,21.73
2018-10-12T07:02:20.704Z,19.70
2018-10-12T07:04:49.961Z,19.97
2018-10-12T07:07:18.310Z,25.93
2018-10-12T07:09:46.721Z,23.30
2018-10-12T07:12:15.406Z,20.60
2018-10-12T07:14:43.828Z,18.63
2018-10-12T07:17:12.142Z,18.37
2018-10-12T07:19:40.571Z,20.47
2018-10-12T07:22:08.795Z,20.03
2018-10-12T07:24:37.033Z,19.93
2018-10-12T07:27:05.680Z,20.57
2018-10-12T07:29:34.038Z,19.73
2018-10-12T07:32:02.338Z,20.40
2018-10-12T07:34:30.592Z,20.13
2018-10-12T07:36:58.812Z,19.20
2018-10-12T07:39:27.038Z,18.07
2018-10-12T07:41:55.299Z,18.00
2018-10-12T07:44:23.687Z,19.43
2018-10-12T07:46:51.880Z,20.83
2018-10-12T07:49:20.646Z,18.93
2018-10-12T07:51:48.879Z,21.30
2018-10-12T07:54:17.256Z,19.10
2018-10-12T07:56:45.542Z,18.53
2018-10-12T07:59:13.794Z,17.63
2018-10-12T08:01:42.033Z,16.73
2018-10-12T08:04:10.208Z,18.57
2018-10-12T08:06:38.372Z,17.47
2018-10-12T08:09:07.817Z,18.30
2018-10-12T08:11:36.506Z,17.47
2018-10-12T08:14:04.847Z,18.53
2018-10-12T08:16:32.963Z,17.13
2018-10-12T08:19:01.244Z,17.60
2018-10-12T08:21:30.105Z,18.40
2018-10-12T08:23:58.345Z,16.50
2018-10-12T08:26:26.556Z,16.37
2018-10-12T08:28:54.696Z,17.73
2018-10-12T08:31:23.439Z,16.93
2018-10-12T08:33:51.679Z,15.97
2018-10-12T08:36:19.853Z,16.20
2018-10-12T08:38:48.145Z,17.63
2018-10-12T08:41:16.304Z,16.43
2018-10-12T08:43:44.720Z,17.67
2018-10-12T08:46:12.940Z,15.07
2018-10-12T08:48:41.156Z,15.63
2018-10-12T08:51:09.351Z,16.70
2018-10-12T08:53:37.586Z,17.63
2018-10-12T08:56:06.001Z,15.50
2018-10-12T08:58:38.780Z,16.47
2018-10-12T09:01:06.956Z,15.93
2018-10-12T09:03:35.223Z,16.23
2018-10-12T09:06:03.512Z,15.03
2018-10-12T09:08:31.714Z,15.67
2018-10-12T09:10:59.898Z,16.67
2018-10-12T09:13:28.214Z,16.70
2018-10-12T09:15:56.621Z,16.27
2018-10-12T09:18:24.826Z,15.13
2018-10-12T09:20:53.639Z,16.37
2018-10-12T09:23:22.359Z,15.53
2018-10-12T09:25:50.570Z,15.70
2018-10-12T09:28:18.808Z,15.70
2018-10-12T09:30:46.980Z,14.83
2018-10-12T09:33:15.223Z,15.90
2018-10-12T09:35:43.423Z,15.77
2018-10-12T09:38:11.669Z,15.43
2018-10-12T09:40:40.189Z,17.67
2018-10-12T09:43:08.444Z,16.03
2018-10-12T09:45:41.756Z,17.17
2018-10-12T09:50:47.960Z,15.87
2018-10-12T09:53:16.268Z,15.97
2018-10-12T09:55:44.538Z,17.00
2018-10-12T09:58:12.962Z,14.97
2018-10-12T10:00:46.626Z,15.87
2018-10-12T10:03:20.066Z,15.97
2018-10-12T10:05:48.316Z,15.50
2018-10-12T10:08:16.695Z,14.70
2018-10-12T10:10:44.783Z,15.93
2018-10-12T10:13:13.160Z,15.33
2018-10-12T10:15:41.379Z,14.53
2018-10-12T10:18:11.817Z,17.10
2018-10-12T10:20:40.726Z,17.33
2018-10-12T10:23:09.413Z,15.43
2018-10-12T10:25:37.672Z,15.17
2018-10-12T10:28:07.017Z,13.83
2018-10-12T10:30:35.314Z,16.30
2018-10-12T10:33:05.092Z,16.77
2018-10-12T10:35:34.093Z,19.23
2018-10-12T10:38:02.380Z,16.57
2018-10-12T10:40:30.583Z,17.83
2018-10-12T10:42:59.060Z,14.10
2018-10-12T10:45:28.255Z,15.83
2018-10-12T10:47:56.609Z,18.53
2018-10-12T10:50:25.806Z,16.73
2018-10-12T10:52:53.994Z,16.57
2018-10-12T10:55:22.212Z,15.77
2018-10-12T10:57:50.353Z,15.83
2018-10-12T11:00:18.499Z,16.27
2018-10-12T11:02:46.780Z,15.80
2018-10-12T11:05:15.008Z,13.67
2018-10-12T11:07:43.325Z,16.33
2018-10-12T11:10:11.535Z,15.00
2018-10-12T11:12:40.299Z,14.37
2018-10-12T11:15:08.537Z,16.30
2018-10-12T11:20:14.840Z,16.03
2018-10-12T11:22:43.129Z,15.13
2018-10-12T11:25:11.334Z,15.80
2018-10-12T11:27:39.553Z,17.70
2018-10-12T11:30:08.053Z,16.17
2018-10-12T11:32:36.436Z,14.83
2018-10-12T11:35:04.787Z,15.50
2018-10-12T11:37:33.074Z,14.20
2018-10-12T11:40:01.331Z,15.17
2018-10-12T11:42:40.946Z,13.47
2018-10-12T11:45:09.176Z,15.53
2018-10-12T11:47:37.550Z,16.23
2018-10-12T11:50:05.839Z,18.23
2018-10-12T11:52:33.992Z,15.40
2018-10-12T11:55:02.215Z,14.97
2018-10-12T11:57:30.456Z,15.00
2018-10-12T11:59:58.777Z,14.77
2018-10-12T12:02:27.007Z,16.63
2018-10-12T12:04:55.213Z,16.30
2018-10-12T12:07:23.589Z,14.03
2018-10-12T12:09:51.954Z,14.20
2018-10-12T12:12:20.307Z,14.73
2018-10-12T12:14:48.479Z,14.43
2018-10-12T12:17:16.768Z,13.30
2018-10-12T12:19:45.059Z,19.67
2018-10-12T12:22:13.372Z,14.07
2018-10-12T12:24:41.644Z,18.97
2018-10-12T12:27:09.890Z,13.20
2018-10-12T12:29:38.138Z,13.90
2018-10-12T12:32:06.377Z,12.83
2018-10-12T12:34:34.788Z,14.43
2018-10-12T12:37:03.207Z,14.43
2018-10-12T12:39:31.380Z,14.90
2018-10-12T12:41:59.747Z,13.40
2018-10-12T12:44:28.652Z,15.67
2018-10-12T12:46:57.399Z,13.47
2018-10-12T12:49:25.868Z,14.63
2018-10-12T12:51:58.127Z,13.93
2018-10-12T12:54:26.773Z,13.53
2018-10-12T12:56:55.949Z,14.83
2018-10-12T12:59:26.185Z,14.50
2018-10-12T13:01:54.429Z,13.90
2018-10-12T13:04:22.945Z,12.00
2018-10-12T13:06:51.125Z,15.67
2018-10-12T13:09:19.892Z,14.07
2018-10-12T13:11:48.601Z,18.33
2018-10-12T13:14:16.852Z,16.37
2018-10-12T13:16:45.229Z,13.53
2018-10-12T13:19:13.453Z,17.07
2018-10-12T13:21:41.656Z,13.07
2018-10-12T13:24:10.085Z,14.80
2018-10-12T13:26:38.358Z,15.20
2018-10-12T13:29:07.008Z,14.00
2018-10-12T13:31:35.350Z,15.33
2018-10-12T13:34:04.010Z,12.97
2018-10-12T13:36:32.285Z,13.27
2018-10-12T13:39:00.478Z,14.43
2018-10-12T13:41:28.724Z,14.40
2018-10-12T13:43:56.897Z,14.37
2018-10-12T13:46:25.117Z,14.33
2018-10-12T13:48:55.576Z,15.77
2018-10-12T13:51:26.039Z,16.27
2018-10-12T13:53:54.266Z,15.77
2018-10-12T13:56:22.557Z,15.00
2018-10-12T13:58:50.939Z,15.03
2018-10-12T14:01:19.140Z,15.00
2018-10-12T14:03:47.477Z,15.77
2018-10-12T14:06:15.699Z,15.50
2018-10-12T14:08:43.865Z,15.10
2018-10-12T14:11:12.304Z,15.30
2018-10-12T14:13:40.627Z,14.27
2018-10-12T14:16:08.981Z,14.70
2018-10-12T14:18:37.312Z,14.90
2018-10-12T14:21:06.612Z,13.87
2018-10-12T14:23:34.820Z,15.60
2018-10-12T14:26:06.438Z,15.37
2018-10-12T14:28:34.669Z,14.33
2018-10-12T14:31:27.015Z,15.97
2018-10-12T14:33:55.681Z,13.60
2018-10-12T14:36:24.506Z,16.57
2018-10-12T14:38:52.941Z,14.10
2018-10-12T14:41:21.137Z,16.50
2018-10-12T14:43:49.452Z,14.63
2018-10-12T14:46:17.917Z,14.27
2018-10-12T14:48:46.201Z,13.43
2018-10-12T14:51:14.474Z,14.07
2018-10-12T14:53:42.775Z,14.30
2018-10-12T14:56:11.030Z,14.00
2018-10-12T14:58:39.325Z,14.87
2018-10-12T15:01:07.719Z,17.07
2018-10-12T15:03:35.919Z,16.93
2018-10-12T15:06:06.131Z,13.37
2018-10-12T15:08:34.471Z,16.93
2018-10-12T15:11:04.043Z,15.63
2018-10-12T15:13:32.427Z,14.17
2018-10-12T15:16:00.738Z,12.23
2018-10-12T15:18:29.025Z,13.30
2018-10-12T15:20:57.507Z,13.33
2018-10-12T15:26:56.353Z,14.53
2018-10-12T15:29:24.628Z,12.63
2018-10-12T15:31:52.938Z,12.63
2018-10-12T15:34:21.086Z,14.27
2018-10-12T15:36:51.768Z,12.83
2018-10-12T15:39:20.035Z,13.30
2018-10-12T15:41:48.246Z,13.50
2018-10-12T15:44:16.512Z,13.60
2018-10-12T15:46:45.457Z,12.67
2018-10-12T15:49:13.696Z,14.50
2018-10-12T15:51:46.577Z,13.73
2018-10-12T15:54:15.071Z,14.23
2018-10-12T15:56:50.257Z,14.50
2018-10-12T15:59:24.365Z,14.07
2018-10-12T16:01:53.544Z,13.80
2018-10-12T16:04:25.278Z,14.80
2018-10-12T16:06:53.532Z,13.90
2018-10-12T16:09:21.906Z,14.17
2018-10-12T16:11:50.271Z,15.60
2018-10-12T16:14:18.487Z,15.60
2018-10-12T16:16:46.780Z,16.63
2018-10-12T16:19:15.692Z,14.20
2018-10-12T16:21:44.565Z,16.10
2018-10-12T16:24:13.849Z,18.93
2018-10-12T16:26:42.065Z,17.90
2018-10-12T16:29:10.407Z,17.97
2018-10-12T16:31:38.538Z,20.83
2018-10-12T16:34:06.828Z,21.80
2018-10-12T16:36:35.051Z,17.70
2018-10-12T16:39:04.819Z,17.70
2018-10-12T16:41:33.704Z,18.37
2018-10-12T16:44:01.983Z,20.30
2018-10-12T16:46:30.143Z,18.23
2018-10-12T16:48:58.737Z,20.13
2018-10-12T16:51:26.924Z,20.43
2018-10-12T16:53:55.388Z,23.17
2018-10-12T16:56:23.661Z,26.03
2018-10-12T16:58:52.031Z,23.80
2018-10-12T17:01:20.256Z,22.27
2018-10-12T17:03:48.488Z,20.30
2018-10-12T17:06:16.932Z,21.87
2018-10-12T17:08:45.302Z,25.00
2018-10-12T17:11:14.016Z,33.67
2018-10-12T17:13:42.250Z,26.40
2018-10-12T17:16:10.587Z,27.27
2018-10-12T17:18:38.775Z,28.53
2018-10-12T17:21:07.073Z,29.03
2018-10-12T17:23:35.658Z,27.73
2018-10-12T17:26:10.717Z,28.10
2018-10-12T17:28:39.057Z,27.73
2018-10-12T17:31:07.262Z,27.60
2018-10-12T17:33:35.651Z,28.10
2018-10-12T17:36:04.582Z,24.87
2018-10-12T17:38:32.875Z,28.80
2018-10-12T17:41:10.302Z,27.27
2018-10-12T17:43:38.528Z,25.03
2018-10-12T17:46:06.854Z,22.83
2018-10-12T17:48:35.124Z,20.90
2018-10-12T17:51:03.349Z,20.40
2018-10-12T17:53:31.589Z,22.43
2018-10-12T17:55:59.854Z,22.73
2018-10-12T17:58:28.092Z,21.93
2018-10-12T18:00:56.314Z,20.80
2018-10-12T18:03:24.482Z,24.23
2018-10-12T18:05:52.729Z,23.00
2018-10-12T18:08:20.969Z,22.40
2018-10-12T18:10:49.320Z,22.17
2018-10-12T18:13:17.539Z,23.77
2018-10-12T18:15:45.999Z,24.60
2018-10-12T18:18:14.482Z,24.73
2018-10-12T18:20:43.477Z,25.30
2018-10-12T18:23:11.732Z,23.07
2018-10-12T18:25:40.156Z,25.90
2018-10-12T18:28:08.376Z,23.63
2018-10-12T18:30:36.602Z,24.60
2018-10-12T18:33:05.574Z,24.00
2018-10-12T18:35:33.817Z,22.40
2018-10-12T18:38:02.272Z,25.30
2018-10-12T18:40:30.600Z,25.73
2018-10-12T18:42:58.982Z,24.53
2018-10-12T18:45:27.357Z,26.67
2018-10-12T18:47:55.864Z,26.43
2018-10-12T18:50:24.116Z,26.10
2018-10-12T18:52:52.262Z,26.07
2018-10-12T18:55:20.862Z,25.37
2018-10-12T18:57:49.652Z,28.47
2018-10-12T19:00:17.883Z,28.40
2018-10-12T19:02:46.222Z,27.50
2018-10-12T19:05:14.473Z,30.07
2018-10-12T19:07:42.707Z,28.93
2018-10-12T19:10:11.936Z,29.57
2018-10-12T19:12:40.314Z,28.77
2018-10-12T19:15:08.972Z,28.00
2018-10-12T19:17:37.218Z,29.13
2018-10-12T19:20:05.434Z,30.63
2018-10-12T19:22:33.682Z,29.50
2018-10-12T19:25:01.958Z,28.43
2018-10-12T19:27:30.270Z,29.87
2018-10-12T19:29:58.625Z,34.27
2018-10-12T19:32:26.902Z,34.83
2018-10-12T19:34:55.247Z,27.67
2018-10-12T19:37:24.005Z,27.80
2018-10-12T19:39:52.321Z,29.73
2018-10-12T19:42:20.550Z,27.00
2018-10-12T19:44:49.243Z,28.03
2018-10-12T19:47:17.494Z,27.83
2018-10-12T19:49:45.734Z,30.23
2018-10-12T19:52:13.978Z,28.50
2018-10-12T19:54:42.260Z,28.50
2018-10-12T19:57:10.524Z,26.73
2018-10-12T19:59:38.802Z,26.57
2018-10-12T20:02:07.074Z,28.00
2018-10-12T20:04:35.383Z,25.37
2018-10-12T20:07:03.625Z,28.60
2018-10-12T20:09:32.528Z,26.57
2018-10-12T20:12:03.578Z,25.63
2018-10-12T20:14:31.871Z,26.87
2018-10-12T20:17:00.171Z,26.57
2018-10-12T20:19:28.386Z,41.23
2018-10-12T20:21:56.689Z,28.00
2018-10-12T20:24:24.941Z,28.60
2018-10-12T20:26:53.116Z,26.90
2018-10-12T20:29:21.417Z,25.10
2018-10-12T20:31:49.626Z,24.90
2018-10-12T20:34:17.890Z,23.83
2018-10-12T20:36:48.185Z,25.13
2018-10-12T20:39:16.425Z,26.43
2018-10-12T20:41:44.698Z,27.00
2018-10-12T20:44:12.976Z,25.57
2018-10-12T20:46:41.215Z,25.53
2018-10-12T20:49:09.452Z,28.87
2018-10-12T20:51:38.507Z,25.43
2018-10-12T20:54:07.102Z,27.33
2018-10-12T20:56:35.353Z,24.87
2018-10-12T20:59:03.644Z,24.40
2018-10-12T21:01:32.988Z,25.97
2018-10-12T21:04:01.306Z,26.83
2018-10-12T21:06:29.377Z,24.10
2018-10-12T21:08:57.621Z,26.10
2018-10-12T21:11:25.836Z,25.00
2018-10-12T21:13:54.050Z,24.87
2018-10-12T21:16:22.340Z,24.90
2018-10-12T21:18:51.157Z,24.27
2018-10-12T21:21:19.436Z,24.50
2018-10-12T21:23:57.060Z,24.80
2018-10-12T21:26:25.274Z,23.03
2018-10-12T21:28:53.491Z,24.50
2018-10-12T21:31:21.681Z,24.97
2018-10-12T21:33:49.885Z,26.60
2018-10-12T21:36:18.105Z,26.97
2018-10-12T21:38:46.359Z,28.17
2018-10-12T21:41:14.720Z,26.73
2018-10-12T21:43:44.772Z,27.60
2018-10-12T21:46:13.023Z,26.57
2018-10-12T21:48:41.290Z,27.33
2018-10-12T21:51:09.467Z,27.23
2018-10-12T21:53:38.483Z,26.70
2018-10-12T21:56:06.696Z,28.20
2018-10-12T21:58:36.508Z,29.93
2018-10-12T22:01:05.537Z,29.60
2018-10-12T22:03:37.551Z,30.00
2018-10-12T22:06:06.160Z,54.10
2018-10-12T22:08:39.703Z,30.60
2018-10-12T22:11:07.869Z,29.50
2018-10-12T22:13:36.718Z,28.27
2018-10-12T22:16:04.873Z,28.50
2018-10-12T22:18:33.039Z,27.93
2018-10-12T22:21:01.274Z,27.93
2018-10-12T22:23:29.485Z,30.77
2018-10-12T22:25:57.673Z,27.37
2018-10-12T22:28:25.848Z,27.03
2018-10-12T22:30:54.037Z,29.03
2018-10-12T22:33:22.236Z,28.80
2018-10-12T22:35:50.426Z,27.30
2018-10-12T22:38:18.601Z,28.47
2018-10-12T22:40:46.751Z,26.90
2018-10-12T22:43:14.902Z,26.07
2018-10-12T22:45:43.124Z,30.83
2018-10-12T22:48:11.340Z,28.37
2018-10-12T22:50:39.525Z,29.77
2018-10-12T22:53:07.738Z,28.70
2018-10-12T22:55:36.277Z,101.87
2018-10-12T22:58:04.465Z,28.77
2018-10-12T23:00:33.759Z,25.57
2018-10-12T23:03:02.135Z,25.73
2018-10-12T23:05:30.357Z,26.53
2018-10-12T23:07:58.537Z,25.40
2018-10-12T23:10:27.147Z,29.23
2018-10-12T23:12:59.081Z,26.90
2018-10-12T23:15:27.368Z,26.63
2018-10-12T23:17:55.565Z,26.03
2018-10-12T23:20:23.722Z,26.43
2018-10-12T23:22:51.933Z,25.57
2018-10-12T23:25:20.133Z,26.83
2018-10-12T23:27:48.330Z,27.30
2018-10-12T23:30:16.534Z,29.03
2018-10-12T23:32:44.721Z,32.43
2018-10-12T23:35:12.994Z,25.30
2018-10-12T23:37:41.339Z,25.43
2018-10-12T23:40:09.533Z,25.93
2018-10-12T23:42:37.676Z,27.40
2018-10-12T23:45:06.089Z,26.90
2018-10-12T23:47:34.260Z,33.47
2018-10-12T23:50:02.534Z,26.93
2018-10-12T23:52:30.842Z,26.57
2018-10-12T23:54:59.061Z,25.40
2018-10-12T23:57:27.239Z,26.27
2018-10-12T23:59:55.479Z,24.13
